sensor_id;sensor_type;location;lat;lon;timestamp;temperature;humidity
4651;DHT22;2338;49.602;8.722;2022-09-09T00:00:20;16.00;99.90
4651;DHT22;2338;49.602;8.722;2022-09-09T00:03:11;16.10;99.90
4651;DHT22;2338;49.602;8.722;2022-09-09T00:06:06;16.10;99.90
4651;DHT22;2338;49.602;8.722;2022-09-09T00:09:01;16.20;99.90
4651;DHT22;2338;49.602;8.722;2022-09-09T00:11:51;16.30;99.90
4651;DHT22;2338;49.602;8.722;2022-09-09T00:14:45;16.30;99.90
4651;DHT22;2338;49.602;8.722;2022-09-09T00:17:37;16.30;99.90
4651;DHT22;2338;49.602;8.722;2022-09-09T00:20:30;16.30;99.90
4651;DHT22;2338;49.602;8.722;2022-09-09T00:23:24;16.40;99.90
4651;DHT22;2338;49.602;8.722;2022-09-09T00:26:16;16.30;99.90
4651;DHT22;2338;49.602;8.722;2022-09-09T00:29:19;16.20;99.90
4651;DHT22;2338;49.602;8.722;2022-09-09T00:32:12;16.10;99.90
4651;DHT22;2338;49.602;8.722;2022-09-09T00:35:03;16.10;99.90
4651;DHT22;2338;49.602;8.722;2022-09-09T00:37:53;16.00;99.90
4651;DHT22;2338;49.602;8.722;2022-09-09T00:40:48;16.00;99.90
4651;DHT22;2338;49.602;8.722;2022-09-09T00:43:36;16.20;99.90
4651;DHT22;2338;49.602;8.722;2022-09-09T00:46:42;16.20;99.90
4651;DHT22;2338;49.602;8.722;2022-09-09T00:49:39;16.20;99.90
4651;DHT22;2338;49.602;8.722;2022-09-09T00:52:38;16.10;99.90
4651;DHT22;2338;49.602;8.722;2022-09-09T00:55:28;16.10;99.90
4651;DHT22;2338;49.602;8.722;2022-09-09T00:58:18;16.20;99.90
4651;DHT22;2338;49.602;8.722;2022-09-09T01:01:05;16.30;99.90
4651;DHT22;2338;49.602;8.722;2022-09-09T01:03:54;16.30;99.90
4651;DHT22;2338;49.602;8.722;2022-09-09T01:06:40;16.30;99.90
4651;DHT22;2338;49.602;8.722;2022-09-09T01:09:32;16.30;99.90
4651;DHT22;2338;49.602;8.722;2022-09-09T01:12:34;16.30;99.90
4651;DHT22;2338;49.602;8.722;2022-09-09T01:15:25;16.30;99.90
4651;DHT22;2338;49.602;8.722;2022-09-09T01:18:15;16.30;99.90
4651;DHT22;2338;49.602;8.722;2022-09-09T01:21:06;16.30;99.90
4651;DHT22;2338;49.602;8.722;2022-09-09T01:24:09;16.30;99.90
4651;DHT22;2338;49.602;8.722;2022-09-09T01:27:01;16.40;99.90
4651;DHT22;2338;49.602;8.722;2022-09-09T01:29:48;16.40;99.90
4651;DHT22;2338;49.602;8.722;2022-09-09T01:32:40;16.40;99.90
4651;DHT22;2338;49.602;8.722;2022-09-09T01:35:35;16.40;99.90
4651;DHT22;2338;49.602;8.722;2022-09-09T01:38:22;16.40;99.90
4651;DHT22;2338;49.602;8.722;2022-09-09T01:41:09;16.40;99.90
4651;DHT22;2338;49.602;8.722;2022-09-09T01:43:57;16.30;99.90
4651;DHT22;2338;49.602;8.722;2022-09-09T01:46:42;16.10;99.90
4651;DHT22;2338;49.602;8.722;2022-09-09T01:49:28;16.00;99.90
4651;DHT22;2338;49.602;8.722;2022-09-09T01:52:14;15.90;99.90
4651;DHT22;2338;49.602;8.722;2022-09-09T01:54:59;15.90;99.90
4651;DHT22;2338;49.602;8.722;2022-09-09T01:57:53;15.80;99.90
4651;DHT22;2338;49.602;8.722;2022-09-09T02:00:48;15.70;99.90
4651;DHT22;2338;49.602;8.722;2022-09-09T02:03:38;15.80;99.90
4651;DHT22;2338;49.602;8.722;2022-09-09T02:06:28;15.90;99.90
4651;DHT22;2338;49.602;8.722;2022-09-09T02:09:18;15.90;99.90
4651;DHT22;2338;49.602;8.722;2022-09-09T02:12:08;15.90;99.90
4651;DHT22;2338;49.602;8.722;2022-09-09T02:15:00;16.00;99.90
4651;DHT22;2338;49.602;8.722;2022-09-09T02:17:50;16.10;99.90
4651;DHT22;2338;49.602;8.722;2022-09-09T02:20:38;16.20;99.90
4651;DHT22;2338;49.602;8.722;2022-09-09T02:23:24;16.40;99.90
4651;DHT22;2338;49.602;8.722;2022-09-09T02:26:12;16.50;99.90
4651;DHT22;2338;49.602;8.722;2022-09-09T02:29:05;16.50;99.90
4651;DHT22;2338;49.602;8.722;2022-09-09T02:31:54;16.60;99.90
4651;DHT22;2338;49.602;8.722;2022-09-09T02:34:47;16.70;99.90
4651;DHT22;2338;49.602;8.722;2022-09-09T02:37:36;16.80;99.90
4651;DHT22;2338;49.602;8.722;2022-09-09T02:40:22;16.90;99.90
4651;DHT22;2338;49.602;8.722;2022-09-09T02:43:08;17.00;99.90
4651;DHT22;2338;49.602;8.722;2022-09-09T02:46:01;17.10;99.90
4651;DHT22;2338;49.602;8.722;2022-09-09T02:48:55;17.10;99.90
4651;DHT22;2338;49.602;8.722;2022-09-09T02:51:51;17.20;99.90
4651;DHT22;2338;49.602;8.722;2022-09-09T02:54:39;17.20;99.90
4651;DHT22;2338;49.602;8.722;2022-09-09T02:57:27;17.30;99.90
4651;DHT22;2338;49.602;8.722;2022-09-09T03:00:14;17.40;99.90
4651;DHT22;2338;49.602;8.722;2022-09-09T03:02:59;17.40;99.90
4651;DHT22;2338;49.602;8.722;2022-09-09T03:05:45;17.40;99.90
4651;DHT22;2338;49.602;8.722;2022-09-09T03:08:32;17.40;99.90
4651;DHT22;2338;49.602;8.722;2022-09-09T03:11:18;17.30;99.90
4651;DHT22;2338;49.602;8.722;2022-09-09T03:14:04;17.30;99.90
4651;DHT22;2338;49.602;8.722;2022-09-09T03:16:49;17.30;99.90
4651;DHT22;2338;49.602;8.722;2022-09-09T03:19:35;17.30;99.90
4651;DHT22;2338;49.602;8.722;2022-09-09T03:22:21;17.30;99.90
4651;DHT22;2338;49.602;8.722;2022-09-09T03:25:09;17.30;99.90
4651;DHT22;2338;49.602;8.722;2022-09-09T03:27:55;17.30;99.90
4651;DHT22;2338;49.602;8.722;2022-09-09T03:30:41;17.20;99.90
4651;DHT22;2338;49.602;8.722;2022-09-09T03:33:27;17.30;99.90
4651;DHT22;2338;49.602;8.722;2022-09-09T03:36:13;17.20;99.90
4651;DHT22;2338;49.602;8.722;2022-09-09T03:38:59;17.20;99.90
4651;DHT22;2338;49.602;8.722;2022-09-09T03:41:48;17.10;99.90
4651;DHT22;2338;49.602;8.722;2022-09-09T03:44:34;17.00;99.90
4651;DHT22;2338;49.602;8.722;2022-09-09T03:47:20;17.00;99.90
4651;DHT22;2338;49.602;8.722;2022-09-09T03:50:08;16.90;99.90
4651;DHT22;2338;49.602;8.722;2022-09-09T03:52:54;16.90;99.90
4651;DHT22;2338;49.602;8.722;2022-09-09T03:55:43;16.90;99.90
4651;DHT22;2338;49.602;8.722;2022-09-09T03:58:31;16.90;99.90
4651;DHT22;2338;49.602;8.722;2022-09-09T04:01:16;16.80;99.90
4651;DHT22;2338;49.602;8.722;2022-09-09T04:04:02;16.80;99.90
4651;DHT22;2338;49.602;8.722;2022-09-09T04:06:48;16.70;99.90
4651;DHT22;2338;49.602;8.722;2022-09-09T04:09:34;16.80;99.90
4651;DHT22;2338;49.602;8.722;2022-09-09T04:12:20;16.80;99.90
4651;DHT22;2338;49.602;8.722;2022-09-09T04:15:08;16.80;99.90
4651;DHT22;2338;49.602;8.722;2022-09-09T04:17:54;16.70;99.90
4651;DHT22;2338;49.602;8.722;2022-09-09T04:20:40;16.70;99.90
4651;DHT22;2338;49.602;8.722;2022-09-09T04:23:28;16.50;99.90
4651;DHT22;2338;49.602;8.722;2022-09-09T04:26:14;16.40;99.90
4651;DHT22;2338;49.602;8.722;2022-09-09T04:29:00;16.50;99.90
4651;DHT22;2338;49.602;8.722;2022-09-09T04:31:47;16.40;99.90
4651;DHT22;2338;49.602;8.722;2022-09-09T04:34:32;16.40;99.90
4651;DHT22;2338;49.602;8.722;2022-09-09T04:37:18;16.40;99.90
4651;DHT22;2338;49.602;8.722;2022-09-09T04:40:04;16.50;99.90
4651;DHT22;2338;49.602;8.722;2022-09-09T04:42:52;16.50;99.90
4651;DHT22;2338;49.602;8.722;2022-09-09T04:45:38;16.50;99.90
4651;DHT22;2338;49.602;8.722;2022-09-09T04:48:26;16.50;99.90
4651;DHT22;2338;49.602;8.722;2022-09-09T04:51:13;16.40;99.90
4651;DHT22;2338;49.602;8.722;2022-09-09T04:53:59;16.40;99.90
4651;DHT22;2338;49.602;8.722;2022-09-09T04:56:45;16.40;99.90
4651;DHT22;2338;49.602;8.722;2022-09-09T04:59:30;16.40;99.90
4651;DHT22;2338;49.602;8.722;2022-09-09T05:02:16;16.40;99.90
4651;DHT22;2338;49.602;8.722;2022-09-09T05:05:04;16.40;99.90
4651;DHT22;2338;49.602;8.722;2022-09-09T05:07:49;16.30;99.90
4651;DHT22;2338;49.602;8.722;2022-09-09T05:10:37;16.30;99.90
4651;DHT22;2338;49.602;8.722;2022-09-09T05:13:23;16.30;99.90
4651;DHT22;2338;49.602;8.722;2022-09-09T05:16:09;16.40;99.90
4651;DHT22;2338;49.602;8.722;2022-09-09T05:18:56;16.40;99.90
4651;DHT22;2338;49.602;8.722;2022-09-09T05:21:42;16.50;99.90
4651;DHT22;2338;49.602;8.722;2022-09-09T05:24:28;16.60;99.90
4651;DHT22;2338;49.602;8.722;2022-09-09T05:27:17;16.70;99.90
4651;DHT22;2338;49.602;8.722;2022-09-09T05:30:04;16.70;99.90
4651;DHT22;2338;49.602;8.722;2022-09-09T05:32:50;16.70;99.90
4651;DHT22;2338;49.602;8.722;2022-09-09T05:35:35;16.80;99.90
4651;DHT22;2338;49.602;8.722;2022-09-09T05:38:23;16.90;99.90
4651;DHT22;2338;49.602;8.722;2022-09-09T05:41:10;16.90;99.90
4651;DHT22;2338;49.602;8.722;2022-09-09T05:43:56;17.00;99.90
4651;DHT22;2338;49.602;8.722;2022-09-09T05:46:45;17.00;99.90
4651;DHT22;2338;49.602;8.722;2022-09-09T05:49:31;17.00;99.90
4651;DHT22;2338;49.602;8.722;2022-09-09T05:52:17;17.00;99.90
4651;DHT22;2338;49.602;8.722;2022-09-09T05:55:05;17.00;99.90
4651;DHT22;2338;49.602;8.722;2022-09-09T05:57:51;17.00;99.90
4651;DHT22;2338;49.602;8.722;2022-09-09T06:00:36;17.00;99.90
4651;DHT22;2338;49.602;8.722;2022-09-09T06:03:22;17.10;99.90
4651;DHT22;2338;49.602;8.722;2022-09-09T06:06:09;17.10;99.90
4651;DHT22;2338;49.602;8.722;2022-09-09T06:08:56;17.10;99.90
4651;DHT22;2338;49.602;8.722;2022-09-09T06:11:44;17.10;99.90
4651;DHT22;2338;49.602;8.722;2022-09-09T06:14:30;17.20;99.90
4651;DHT22;2338;49.602;8.722;2022-09-09T06:17:15;17.20;99.90
4651;DHT22;2338;49.602;8.722;2022-09-09T06:20:02;17.30;99.90
4651;DHT22;2338;49.602;8.722;2022-09-09T06:22:48;17.20;99.90
4651;DHT22;2338;49.602;8.722;2022-09-09T06:25:33;17.20;99.90
4651;DHT22;2338;49.602;8.722;2022-09-09T06:28:20;17.20;99.90
4651;DHT22;2338;49.602;8.722;2022-09-09T06:31:07;17.30;99.90
4651;DHT22;2338;49.602;8.722;2022-09-09T06:33:54;17.20;99.90
4651;DHT22;2338;49.602;8.722;2022-09-09T06:36:40;17.20;99.90
4651;DHT22;2338;49.602;8.722;2022-09-09T06:39:25;17.10;99.90
4651;DHT22;2338;49.602;8.722;2022-09-09T06:42:11;17.20;99.90
4651;DHT22;2338;49.602;8.722;2022-09-09T06:44:58;17.20;99.90
4651;DHT22;2338;49.602;8.722;2022-09-09T06:47:43;17.30;99.90
4651;DHT22;2338;49.602;8.722;2022-09-09T06:50:29;17.30;99.90
4651;DHT22;2338;49.602;8.722;2022-09-09T06:53:16;17.50;99.90
4651;DHT22;2338;49.602;8.722;2022-09-09T06:56:18;17.70;99.90
4651;DHT22;2338;49.602;8.722;2022-09-09T06:59:05;17.90;99.90
4651;DHT22;2338;49.602;8.722;2022-09-09T07:01:54;18.10;99.90
4651;DHT22;2338;49.602;8.722;2022-09-09T07:04:40;18.10;99.90
4651;DHT22;2338;49.602;8.722;2022-09-09T07:07:27;18.20;99.90
4651;DHT22;2338;49.602;8.722;2022-09-09T07:10:13;18.20;99.90
4651;DHT22;2338;49.602;8.722;2022-09-09T07:12:58;18.10;99.90
4651;DHT22;2338;49.602;8.722;2022-09-09T07:15:45;18.20;99.90
4651;DHT22;2338;49.602;8.722;2022-09-09T07:18:33;18.30;99.90
4651;DHT22;2338;49.602;8.722;2022-09-09T07:21:19;18.30;99.90
4651;DHT22;2338;49.602;8.722;2022-09-09T07:24:05;18.30;99.90
4651;DHT22;2338;49.602;8.722;2022-09-09T07:26:51;18.30;99.90
4651;DHT22;2338;49.602;8.722;2022-09-09T07:29:37;18.40;99.90
4651;DHT22;2338;49.602;8.722;2022-09-09T07:32:22;18.50;99.90
4651;DHT22;2338;49.602;8.722;2022-09-09T07:35:11;18.40;99.90
4651;DHT22;2338;49.602;8.722;2022-09-09T07:37:56;18.30;99.90
4651;DHT22;2338;49.602;8.722;2022-09-09T07:40:42;18.50;99.90
4651;DHT22;2338;49.602;8.722;2022-09-09T07:43:29;18.40;99.90
4651;DHT22;2338;49.602;8.722;2022-09-09T07:46:16;18.40;99.90
4651;DHT22;2338;49.602;8.722;2022-09-09T07:49:02;18.40;99.90
4651;DHT22;2338;49.602;8.722;2022-09-09T07:51:49;18.40;99.90
4651;DHT22;2338;49.602;8.722;2022-09-09T07:54:35;18.40;99.90
4651;DHT22;2338;49.602;8.722;2022-09-09T07:57:21;18.40;99.90
4651;DHT22;2338;49.602;8.722;2022-09-09T08:00:08;18.30;99.90
4651;DHT22;2338;49.602;8.722;2022-09-09T08:02:54;18.20;99.90
4651;DHT22;2338;49.602;8.722;2022-09-09T08:05:40;18.30;99.90
4651;DHT22;2338;49.602;8.722;2022-09-09T08:08:28;18.30;99.90
4651;DHT22;2338;49.602;8.722;2022-09-09T08:11:15;18.30;99.90
4651;DHT22;2338;49.602;8.722;2022-09-09T08:14:01;18.30;99.90
4651;DHT22;2338;49.602;8.722;2022-09-09T08:16:48;18.30;99.90
4651;DHT22;2338;49.602;8.722;2022-09-09T08:19:35;18.50;99.90
4651;DHT22;2338;49.602;8.722;2022-09-09T08:22:20;18.70;99.90
4651;DHT22;2338;49.602;8.722;2022-09-09T08:25:08;18.70;99.90
4651;DHT22;2338;49.602;8.722;2022-09-09T08:27:54;18.70;99.90
4651;DHT22;2338;49.602;8.722;2022-09-09T08:30:40;18.70;99.90
4651;DHT22;2338;49.602;8.722;2022-09-09T08:33:26;18.60;99.90
4651;DHT22;2338;49.602;8.722;2022-09-09T08:36:13;18.60;99.90
4651;DHT22;2338;49.602;8.722;2022-09-09T08:39:00;18.50;99.90
4651;DHT22;2338;49.602;8.722;2022-09-09T08:42:26;18.60;99.90
4651;DHT22;2338;49.602;8.722;2022-09-09T08:45:25;18.60;99.90
4651;DHT22;2338;49.602;8.722;2022-09-09T08:48:22;18.40;99.90
4651;DHT22;2338;49.602;8.722;2022-09-09T08:51:11;18.20;99.90
4651;DHT22;2338;49.602;8.722;2022-09-09T08:53:59;18.20;99.90
4651;DHT22;2338;49.602;8.722;2022-09-09T08:56:45;18.10;99.90
4651;DHT22;2338;49.602;8.722;2022-09-09T08:59:32;18.00;99.90
4651;DHT22;2338;49.602;8.722;2022-09-09T09:02:22;18.00;99.90
4651;DHT22;2338;49.602;8.722;2022-09-09T09:05:18;18.10;99.90
4651;DHT22;2338;49.602;8.722;2022-09-09T09:08:14;18.30;99.90
4651;DHT22;2338;49.602;8.722;2022-09-09T09:11:02;18.50;99.90
4651;DHT22;2338;49.602;8.722;2022-09-09T09:13:52;18.60;99.90
4651;DHT22;2338;49.602;8.722;2022-09-09T09:16:45;18.70;99.90
4651;DHT22;2338;49.602;8.722;2022-09-09T09:19:35;18.90;99.90
4651;DHT22;2338;49.602;8.722;2022-09-09T09:22:29;18.90;99.90
4651;DHT22;2338;49.602;8.722;2022-09-09T09:25:19;19.00;99.90
4651;DHT22;2338;49.602;8.722;2022-09-09T09:28:13;19.00;99.90
4651;DHT22;2338;49.602;8.722;2022-09-09T09:31:04;19.10;99.90
4651;DHT22;2338;49.602;8.722;2022-09-09T09:33:53;19.20;99.90
4651;DHT22;2338;49.602;8.722;2022-09-09T09:36:41;19.20;99.90
4651;DHT22;2338;49.602;8.722;2022-09-09T09:39:30;19.30;99.90
4651;DHT22;2338;49.602;8.722;2022-09-09T09:42:20;19.20;99.90
4651;DHT22;2338;49.602;8.722;2022-09-09T09:45:16;19.30;99.90
4651;DHT22;2338;49.602;8.722;2022-09-09T09:48:04;19.50;99.90
4651;DHT22;2338;49.602;8.722;2022-09-09T09:50:52;19.40;99.90
4651;DHT22;2338;49.602;8.722;2022-09-09T09:53:39;19.50;99.90
4651;DHT22;2338;49.602;8.722;2022-09-09T09:56:28;19.40;99.90
4651;DHT22;2338;49.602;8.722;2022-09-09T09:59:33;19.40;99.90
4651;DHT22;2338;49.602;8.722;2022-09-09T10:02:20;19.40;99.90
4651;DHT22;2338;49.602;8.722;2022-09-09T10:05:17;19.40;99.90
4651;DHT22;2338;49.602;8.722;2022-09-09T10:08:09;19.40;99.90
4651;DHT22;2338;49.602;8.722;2022-09-09T10:11:09;19.20;99.90
4651;DHT22;2338;49.602;8.722;2022-09-09T10:14:05;19.20;99.90
4651;DHT22;2338;49.602;8.722;2022-09-09T10:17:06;19.10;99.90
4651;DHT22;2338;49.602;8.722;2022-09-09T10:20:04;19.10;99.90
4651;DHT22;2338;49.602;8.722;2022-09-09T10:23:08;19.00;99.90
4651;DHT22;2338;49.602;8.722;2022-09-09T10:26:16;18.90;99.90
4651;DHT22;2338;49.602;8.722;2022-09-09T10:29:24;18.80;99.90
4651;DHT22;2338;49.602;8.722;2022-09-09T10:32:38;18.50;99.90
4651;DHT22;2338;49.602;8.722;2022-09-09T10:35:29;18.40;99.90
4651;DHT22;2338;49.602;8.722;2022-09-09T10:38:20;18.30;99.90
4651;DHT22;2338;49.602;8.722;2022-09-09T10:41:15;18.30;99.90
4651;DHT22;2338;49.602;8.722;2022-09-09T10:44:33;18.50;99.90
4651;DHT22;2338;49.602;8.722;2022-09-09T10:47:44;18.70;99.90
4651;DHT22;2338;49.602;8.722;2022-09-09T10:50:45;19.00;99.90
4651;DHT22;2338;49.602;8.722;2022-09-09T10:53:45;19.40;99.90
4651;DHT22;2338;49.602;8.722;2022-09-09T10:56:37;19.80;99.90
4651;DHT22;2338;49.602;8.722;2022-09-09T10:59:26;20.20;99.90
4651;DHT22;2338;49.602;8.722;2022-09-09T11:02:16;20.50;99.90
4651;DHT22;2338;49.602;8.722;2022-09-09T11:05:07;20.60;99.90
4651;DHT22;2338;49.602;8.722;2022-09-09T11:07:57;20.80;99.90
4651;DHT22;2338;49.602;8.722;2022-09-09T11:10:49;20.90;99.90
4651;DHT22;2338;49.602;8.722;2022-09-09T11:13:42;21.00;99.90
4651;DHT22;2338;49.602;8.722;2022-09-09T11:16:35;20.90;99.90
4651;DHT22;2338;49.602;8.722;2022-09-09T11:19:30;20.90;99.90
4651;DHT22;2338;49.602;8.722;2022-09-09T11:22:27;21.10;99.90
4651;DHT22;2338;49.602;8.722;2022-09-09T11:25:16;21.30;99.90
4651;DHT22;2338;49.602;8.722;2022-09-09T11:28:27;21.60;99.90
4651;DHT22;2338;49.602;8.722;2022-09-09T11:31:27;21.80;99.90
4651;DHT22;2338;49.602;8.722;2022-09-09T11:34:27;21.80;94.00
4651;DHT22;2338;49.602;8.722;2022-09-09T11:37:51;21.90;96.20
4651;DHT22;2338;49.602;8.722;2022-09-09T11:40:39;21.80;90.60
4651;DHT22;2338;49.602;8.722;2022-09-09T11:43:30;21.90;90.70
4651;DHT22;2338;49.602;8.722;2022-09-09T11:46:18;22.10;90.70
4651;DHT22;2338;49.602;8.722;2022-09-09T11:49:26;22.20;85.10
4651;DHT22;2338;49.602;8.722;2022-09-09T11:52:18;22.30;79.50
4651;DHT22;2338;49.602;8.722;2022-09-09T11:55:10;22.20;76.40
4651;DHT22;2338;49.602;8.722;2022-09-09T11:57:58;22.20;74.30
4651;DHT22;2338;49.602;8.722;2022-09-09T12:00:47;22.30;76.50
4651;DHT22;2338;49.602;8.722;2022-09-09T12:03:40;22.30;74.10
4651;DHT22;2338;49.602;8.722;2022-09-09T12:06:30;22.40;73.50
4651;DHT22;2338;49.602;8.722;2022-09-09T12:09:23;22.40;69.50
4651;DHT22;2338;49.602;8.722;2022-09-09T12:12:28;22.20;69.10
4651;DHT22;2338;49.602;8.722;2022-09-09T12:15:27;21.80;67.90
4651;DHT22;2338;49.602;8.722;2022-09-09T12:18:22;21.50;70.60
4651;DHT22;2338;49.602;8.722;2022-09-09T12:21:15;21.30;72.70
4651;DHT22;2338;49.602;8.722;2022-09-09T12:24:08;21.20;75.60
4651;DHT22;2338;49.602;8.722;2022-09-09T12:26:58;21.00;76.50
4651;DHT22;2338;49.602;8.722;2022-09-09T12:29:52;20.90;77.40
4651;DHT22;2338;49.602;8.722;2022-09-09T12:32:39;20.80;75.20
4651;DHT22;2338;49.602;8.722;2022-09-09T12:35:27;20.60;77.00
4651;DHT22;2338;49.602;8.722;2022-09-09T12:38:17;20.60;76.50
4651;DHT22;2338;49.602;8.722;2022-09-09T12:41:18;20.70;79.30
4651;DHT22;2338;49.602;8.722;2022-09-09T12:44:06;20.70;78.40
4651;DHT22;2338;49.602;8.722;2022-09-09T12:46:53;20.60;77.10
4651;DHT22;2338;49.602;8.722;2022-09-09T12:49:39;20.40;87.60
4651;DHT22;2338;49.602;8.722;2022-09-09T12:52:30;19.90;99.90
4651;DHT22;2338;49.602;8.722;2022-09-09T12:55:20;19.60;99.90
4651;DHT22;2338;49.602;8.722;2022-09-09T12:58:13;19.40;99.90
4651;DHT22;2338;49.602;8.722;2022-09-09T13:01:03;19.10;99.90
4651;DHT22;2338;49.602;8.722;2022-09-09T13:03:49;18.80;99.90
4651;DHT22;2338;49.602;8.722;2022-09-09T13:06:35;18.80;99.90
4651;DHT22;2338;49.602;8.722;2022-09-09T13:09:22;18.80;99.90
4651;DHT22;2338;49.602;8.722;2022-09-09T13:12:13;18.90;99.90
4651;DHT22;2338;49.602;8.722;2022-09-09T13:14:59;19.30;99.90
4651;DHT22;2338;49.602;8.722;2022-09-09T13:17:50;19.50;99.90
4651;DHT22;2338;49.602;8.722;2022-09-09T13:20:39;19.60;99.90
4651;DHT22;2338;49.602;8.722;2022-09-09T13:23:32;19.40;99.90
4651;DHT22;2338;49.602;8.722;2022-09-09T13:26:25;19.30;99.90
4651;DHT22;2338;49.602;8.722;2022-09-09T13:29:17;19.10;99.90
4651;DHT22;2338;49.602;8.722;2022-09-09T13:32:06;19.00;99.90
4651;DHT22;2338;49.602;8.722;2022-09-09T13:34:52;18.60;99.90
4651;DHT22;2338;49.602;8.722;2022-09-09T13:37:39;18.50;99.90
4651;DHT22;2338;49.602;8.722;2022-09-09T13:40:25;18.50;99.90
4651;DHT22;2338;49.602;8.722;2022-09-09T13:43:18;18.30;99.90
4651;DHT22;2338;49.602;8.722;2022-09-09T13:46:24;18.20;99.90
4651;DHT22;2338;49.602;8.722;2022-09-09T13:49:20;18.10;99.90
4651;DHT22;2338;49.602;8.722;2022-09-09T13:52:09;18.00;99.90
4651;DHT22;2338;49.602;8.722;2022-09-09T13:54:55;18.00;99.90
4651;DHT22;2338;49.602;8.722;2022-09-09T13:57:51;18.00;99.90
4651;DHT22;2338;49.602;8.722;2022-09-09T14:00:38;18.00;99.90
4651;DHT22;2338;49.602;8.722;2022-09-09T14:03:23;18.10;99.90
4651;DHT22;2338;49.602;8.722;2022-09-09T14:06:09;18.30;99.90
4651;DHT22;2338;49.602;8.722;2022-09-09T14:08:56;18.50;99.90
4651;DHT22;2338;49.602;8.722;2022-09-09T14:11:41;18.60;99.90
4651;DHT22;2338;49.602;8.722;2022-09-09T14:14:27;18.80;99.90
4651;DHT22;2338;49.602;8.722;2022-09-09T14:17:14;19.00;99.90
4651;DHT22;2338;49.602;8.722;2022-09-09T14:20:00;19.10;99.90
4651;DHT22;2338;49.602;8.722;2022-09-09T14:22:45;19.40;99.90
4651;DHT22;2338;49.602;8.722;2022-09-09T14:25:31;19.90;99.90
4651;DHT22;2338;49.602;8.722;2022-09-09T14:28:17;20.20;99.90
4651;DHT22;2338;49.602;8.722;2022-09-09T14:31:04;20.60;99.90
4651;DHT22;2338;49.602;8.722;2022-09-09T14:33:51;20.80;99.90
4651;DHT22;2338;49.602;8.722;2022-09-09T14:36:37;20.90;99.90
4651;DHT22;2338;49.602;8.722;2022-09-09T14:39:22;21.20;99.90
4651;DHT22;2338;49.602;8.722;2022-09-09T14:42:08;21.50;99.90
4651;DHT22;2338;49.602;8.722;2022-09-09T14:44:55;21.80;99.90
4651;DHT22;2338;49.602;8.722;2022-09-09T14:47:41;21.90;99.90
4651;DHT22;2338;49.602;8.722;2022-09-09T14:50:28;22.10;99.90
4651;DHT22;2338;49.602;8.722;2022-09-09T14:53:16;21.80;99.90
4651;DHT22;2338;49.602;8.722;2022-09-09T14:56:07;21.70;99.90
4651;DHT22;2338;49.602;8.722;2022-09-09T14:58:54;21.60;99.90
4651;DHT22;2338;49.602;8.722;2022-09-09T15:01:40;21.70;99.90
4651;DHT22;2338;49.602;8.722;2022-09-09T15:04:26;21.70;99.90
4651;DHT22;2338;49.602;8.722;2022-09-09T15:07:13;21.60;99.90
4651;DHT22;2338;49.602;8.722;2022-09-09T15:09:58;21.30;99.90
4651;DHT22;2338;49.602;8.722;2022-09-09T15:12:44;20.80;99.90
4651;DHT22;2338;49.602;8.722;2022-09-09T15:15:30;20.60;99.90
4651;DHT22;2338;49.602;8.722;2022-09-09T15:18:15;20.40;99.90
4651;DHT22;2338;49.602;8.722;2022-09-09T15:21:02;20.10;99.90
4651;DHT22;2338;49.602;8.722;2022-09-09T15:23:50;19.90;99.90
4651;DHT22;2338;49.602;8.722;2022-09-09T15:26:37;19.60;99.90
4651;DHT22;2338;49.602;8.722;2022-09-09T15:29:23;19.40;99.90
4651;DHT22;2338;49.602;8.722;2022-09-09T15:32:09;19.20;99.90
4651;DHT22;2338;49.602;8.722;2022-09-09T15:34:55;19.10;99.90
4651;DHT22;2338;49.602;8.722;2022-09-09T15:37:41;18.80;99.90
4651;DHT22;2338;49.602;8.722;2022-09-09T15:40:28;18.80;99.90
4651;DHT22;2338;49.602;8.722;2022-09-09T15:43:16;18.60;99.90
4651;DHT22;2338;49.602;8.722;2022-09-09T15:46:25;18.60;99.90
4651;DHT22;2338;49.602;8.722;2022-09-09T15:49:13;18.30;99.90
4651;DHT22;2338;49.602;8.722;2022-09-09T15:51:59;18.20;99.90
4651;DHT22;2338;49.602;8.722;2022-09-09T15:54:47;18.00;99.90
4651;DHT22;2338;49.602;8.722;2022-09-09T15:57:34;17.90;99.90
4651;DHT22;2338;49.602;8.722;2022-09-09T16:00:20;17.90;99.90
4651;DHT22;2338;49.602;8.722;2022-09-09T16:03:06;17.80;99.90
4651;DHT22;2338;49.602;8.722;2022-09-09T16:05:52;17.60;99.90
4651;DHT22;2338;49.602;8.722;2022-09-09T16:08:40;17.50;99.90
4651;DHT22;2338;49.602;8.722;2022-09-09T16:11:29;17.60;99.90
4651;DHT22;2338;49.602;8.722;2022-09-09T16:14:16;17.60;99.90
4651;DHT22;2338;49.602;8.722;2022-09-09T16:17:02;17.60;99.90
4651;DHT22;2338;49.602;8.722;2022-09-09T16:19:49;17.50;99.90
4651;DHT22;2338;49.602;8.722;2022-09-09T16:22:35;17.40;99.90
4651;DHT22;2338;49.602;8.722;2022-09-09T16:25:20;17.60;99.90
4651;DHT22;2338;49.602;8.722;2022-09-09T16:28:06;17.60;99.90
4651;DHT22;2338;49.602;8.722;2022-09-09T16:30:53;17.70;99.90
4651;DHT22;2338;49.602;8.722;2022-09-09T16:33:39;17.50;99.90
4651;DHT22;2338;49.602;8.722;2022-09-09T16:36:26;17.50;99.90
4651;DHT22;2338;49.602;8.722;2022-09-09T16:39:13;17.50;99.90
4651;DHT22;2338;49.602;8.722;2022-09-09T16:41:59;17.50;99.90
4651;DHT22;2338;49.602;8.722;2022-09-09T16:44:46;17.40;99.90
4651;DHT22;2338;49.602;8.722;2022-09-09T16:47:35;17.30;99.90
4651;DHT22;2338;49.602;8.722;2022-09-09T16:50:21;17.30;99.90
4651;DHT22;2338;49.602;8.722;2022-09-09T16:53:07;17.30;99.90
4651;DHT22;2338;49.602;8.722;2022-09-09T16:55:54;17.30;99.90
4651;DHT22;2338;49.602;8.722;2022-09-09T16:58:39;17.20;99.90
4651;DHT22;2338;49.602;8.722;2022-09-09T17:01:29;17.20;99.90
4651;DHT22;2338;49.602;8.722;2022-09-09T17:04:18;17.20;99.90
4651;DHT22;2338;49.602;8.722;2022-09-09T17:07:05;17.30;99.90
4651;DHT22;2338;49.602;8.722;2022-09-09T17:09:50;17.30;99.90
4651;DHT22;2338;49.602;8.722;2022-09-09T17:12:38;17.30;99.90
4651;DHT22;2338;49.602;8.722;2022-09-09T17:15:24;17.20;99.90
4651;DHT22;2338;49.602;8.722;2022-09-09T17:18:10;17.10;99.90
4651;DHT22;2338;49.602;8.722;2022-09-09T17:21:02;17.10;99.90
4651;DHT22;2338;49.602;8.722;2022-09-09T17:23:48;17.00;99.90
4651;DHT22;2338;49.602;8.722;2022-09-09T17:26:34;17.00;99.90
4651;DHT22;2338;49.602;8.722;2022-09-09T17:29:20;17.00;99.90
4651;DHT22;2338;49.602;8.722;2022-09-09T17:32:05;17.10;99.90
4651;DHT22;2338;49.602;8.722;2022-09-09T17:34:51;17.10;99.90
4651;DHT22;2338;49.602;8.722;2022-09-09T17:37:38;16.80;99.90
4651;DHT22;2338;49.602;8.722;2022-09-09T17:40:24;16.70;99.90
4651;DHT22;2338;49.602;8.722;2022-09-09T17:43:10;16.70;99.90
4651;DHT22;2338;49.602;8.722;2022-09-09T17:46:05;16.70;99.90
4651;DHT22;2338;49.602;8.722;2022-09-09T17:48:54;16.60;99.90
4651;DHT22;2338;49.602;8.722;2022-09-09T17:51:41;16.60;99.90
4651;DHT22;2338;49.602;8.722;2022-09-09T17:54:28;16.60;99.90
4651;DHT22;2338;49.602;8.722;2022-09-09T17:57:14;16.50;99.90
4651;DHT22;2338;49.602;8.722;2022-09-09T18:00:02;16.50;99.90
4651;DHT22;2338;49.602;8.722;2022-09-09T18:02:47;16.50;99.90
4651;DHT22;2338;49.602;8.722;2022-09-09T18:05:33;16.50;99.90
4651;DHT22;2338;49.602;8.722;2022-09-09T18:08:19;16.50;99.90
4651;DHT22;2338;49.602;8.722;2022-09-09T18:11:06;16.50;99.90
4651;DHT22;2338;49.602;8.722;2022-09-09T18:13:53;16.50;99.90
4651;DHT22;2338;49.602;8.722;2022-09-09T18:16:40;16.40;99.90
4651;DHT22;2338;49.602;8.722;2022-09-09T18:19:27;16.40;99.90
4651;DHT22;2338;49.602;8.722;2022-09-09T18:22:13;16.30;99.90
4651;DHT22;2338;49.602;8.722;2022-09-09T18:24:59;16.20;99.90